GOL7634 SBBR-KMCO
Flight info
| Callsign | GOL7634 |
|---|---|
| Flight time | N/A |
| Altitude | 34000 |
| Route | UGUGA UM409 UDOMA DCT PAMEB DCT LOBEX DCT VUMPI UL795 GELOG UL210 BORDO Y259 OCTAL MUNGI1 |
| Aircraft | B38M/M-SDE1FGHILORVWXY/HB1 |
Departure
| Time | 2026-05-04 14:27 |
|---|---|
| Airport | Presidente Juscelino Kubitschek International Airport (SBBR) |
Arrival
| Time | N/A |
|---|---|
| Airport | Orlando International Airport (KMCO) |
| Time | Latitude | Longitude | Altitude | Speed | Heading |
|---|---|---|---|---|---|
| 2026-05-04 13:37 | -15.86856 | -47.91829 | 3474 ft | 0 kts | 356° |
| 2026-05-04 14:18 | -15.86901 | -47.91838 | 3474 ft | 4 kts | 40° |
| 2026-05-04 14:19 | -15.86912 | -47.91857 | 3471 ft | 2 kts | 86° |
| 2026-05-04 14:21 | -15.86911 | -47.91853 | 3471 ft | 2 kts | 86° |
| 2026-05-04 14:21 | -15.86910 | -47.91829 | 3471 ft | 5 kts | 86° |
| 2026-05-04 14:21 | -15.86907 | -47.91785 | 3474 ft | 8 kts | 86° |
| 2026-05-04 14:21 | -15.86903 | -47.91723 | 3475 ft | 9 kts | 86° |
| 2026-05-04 14:22 | -15.86898 | -47.91654 | 3474 ft | 10 kts | 86° |
| 2026-05-04 14:22 | -15.86860 | -47.91605 | 3474 ft | 10 kts | 359° |
| 2026-05-04 14:22 | -15.86791 | -47.91611 | 3474 ft | 10 kts | 356° |
| 2026-05-04 14:22 | -15.86717 | -47.91616 | 3473 ft | 11 kts | 356° |
| 2026-05-04 14:23 | -15.86533 | -47.91629 | 3468 ft | 16 kts | 356° |
| 2026-05-04 14:23 | -15.86483 | -47.91658 | 3468 ft | 8 kts | 289° |
| 2026-05-04 14:23 | -15.86483 | -47.91714 | 3469 ft | 7 kts | 266° |
| 2026-05-04 14:24 | -15.86485 | -47.91753 | 3470 ft | 9 kts | 266° |
| 2026-05-04 14:24 | -15.86491 | -47.91826 | 3471 ft | 11 kts | 265° |
| 2026-05-04 14:24 | -15.86497 | -47.91920 | 3471 ft | 15 kts | 268° |
| 2026-05-04 14:24 | -15.86505 | -47.92041 | 3471 ft | 19 kts | 265° |
| 2026-05-04 14:25 | -15.86514 | -47.92195 | 3471 ft | 23 kts | 266° |
| 2026-05-04 14:25 | -15.86536 | -47.92528 | 3469 ft | 24 kts | 268° |
| 2026-05-04 14:25 | -15.86548 | -47.92703 | 3466 ft | 21 kts | 268° |
| 2026-05-04 14:26 | -15.86459 | -47.92770 | 3463 ft | 19 kts | 355° |
| 2026-05-04 14:26 | -15.86359 | -47.92697 | 3463 ft | 18 kts | 68° |
| 2026-05-04 14:26 | -15.86344 | -47.92562 | 3465 ft | 21 kts | 86° |
| 2026-05-04 14:26 | -15.86325 | -47.92258 | 3468 ft | 73 kts | 86° |
| 2026-05-04 14:27 | -15.86278 | -47.91532 | 3466 ft | 130 kts | 86° |
| 2026-05-04 14:27 | -15.86214 | -47.90431 | 3525 ft | 172 kts | 87° |
| 2026-05-04 14:27 | -15.86128 | -47.89158 | 4182 ft | 181 kts | 85° |
| 2026-05-04 14:27 | -15.86038 | -47.87815 | 4894 ft | 191 kts | 84° |
| 2026-05-04 14:28 | -15.85964 | -47.86426 | 5581 ft | 199 kts | 84° |
| 2026-05-04 14:28 | -15.85891 | -47.84956 | 6202 ft | 206 kts | 83° |
| 2026-05-04 14:28 | -15.85745 | -47.83471 | 6872 ft | 209 kts | 75° |
| 2026-05-04 14:28 | -15.85046 | -47.82154 | 7373 ft | 218 kts | 40° |
| 2026-05-04 14:29 | -15.81883 | -47.81758 | 8329 ft | 259 kts | 342° |
| 2026-05-04 14:29 | -15.79035 | -47.84232 | 9826 ft | 274 kts | 316° |
| 2026-05-04 14:30 | -15.77699 | -47.85665 | 10599 ft | 279 kts | 316° |
| 2026-05-04 14:30 | -15.76313 | -47.87098 | 11251 ft | 285 kts | 318° |
| 2026-05-04 14:30 | -15.73363 | -47.89975 | 12343 ft | 305 kts | 319° |
| 2026-05-04 14:31 | -15.71752 | -47.91501 | 12628 ft | 324 kts | 319° |
| 2026-05-04 14:31 | -15.68263 | -47.94819 | 13395 ft | 353 kts | 319° |
| 2026-05-04 14:32 | -15.64636 | -47.98327 | 14577 ft | 361 kts | 318° |
| 2026-05-04 14:32 | -15.62800 | -48.00116 | 15160 ft | 363 kts | 317° |
| 2026-05-04 14:32 | -15.60962 | -48.01913 | 15651 ft | 368 kts | 317° |
| 2026-05-04 14:32 | -15.59083 | -48.03751 | 16248 ft | 370 kts | 317° |
| 2026-05-04 14:33 | -15.57205 | -48.05588 | 16786 ft | 374 kts | 317° |
| 2026-05-04 14:33 | -15.55304 | -48.07445 | 17329 ft | 377 kts | 316° |
| 2026-05-04 14:33 | -15.53388 | -48.09321 | 17890 ft | 379 kts | 316° |
| 2026-05-04 14:33 | -15.51457 | -48.11207 | 18391 ft | 383 kts | 316° |
| 2026-05-04 14:34 | -15.49515 | -48.13102 | 18892 ft | 385 kts | 315° |
| 2026-05-04 14:34 | -15.47548 | -48.15026 | 19363 ft | 388 kts | 315° |
| 2026-05-04 14:34 | -15.45579 | -48.16951 | 19807 ft | 390 kts | 315° |
| 2026-05-04 14:34 | -15.43596 | -48.18885 | 20193 ft | 393 kts | 316° |
| 2026-05-04 14:35 | -15.41600 | -48.20834 | 20605 ft | 395 kts | 316° |
| 2026-05-04 14:35 | -15.39594 | -48.22791 | 21090 ft | 396 kts | 315° |
| 2026-05-04 14:35 | -15.37605 | -48.24735 | 21528 ft | 400 kts | 315° |
| 2026-05-04 14:35 | -15.35578 | -48.26709 | 21981 ft | 403 kts | 315° |
| 2026-05-04 14:36 | -15.33529 | -48.28708 | 22427 ft | 405 kts | 315° |
| 2026-05-04 14:36 | -15.31468 | -48.30717 | 22860 ft | 408 kts | 315° |
| 2026-05-04 14:36 | -15.29401 | -48.32735 | 23313 ft | 410 kts | 315° |
| 2026-05-04 14:36 | -15.27313 | -48.34770 | 23709 ft | 413 kts | 315° |
| 2026-05-04 14:37 | -15.25209 | -48.36817 | 24058 ft | 416 kts | 315° |
| 2026-05-04 14:37 | -15.23099 | -48.38874 | 24409 ft | 417 kts | 315° |
| 2026-05-04 14:37 | -15.20981 | -48.40936 | 24756 ft | 420 kts | 315° |
| 2026-05-04 14:37 | -15.18853 | -48.43011 | 25105 ft | 421 kts | 314° |
| 2026-05-04 14:38 | -15.16715 | -48.45095 | 25396 ft | 423 kts | 314° |
| 2026-05-04 14:38 | -15.14574 | -48.47178 | 25751 ft | 425 kts | 315° |
| 2026-05-04 14:38 | -15.12411 | -48.49284 | 26069 ft | 427 kts | 314° |
| 2026-05-04 14:38 | -15.10240 | -48.51394 | 26371 ft | 429 kts | 314° |
| 2026-05-04 14:39 | -15.08064 | -48.53512 | 26696 ft | 431 kts | 315° |
| 2026-05-04 14:39 | -15.05870 | -48.55645 | 27020 ft | 433 kts | 315° |
| 2026-05-04 14:39 | -15.03668 | -48.57789 | 27361 ft | 435 kts | 314° |
| 2026-05-04 14:40 | -14.99237 | -48.62095 | 27969 ft | 439 kts | 314° |
| 2026-05-04 14:40 | -14.97010 | -48.64258 | 28240 ft | 441 kts | 315° |
| 2026-05-04 14:40 | -14.94764 | -48.66438 | 28537 ft | 443 kts | 314° |
| 2026-05-04 14:40 | -14.92522 | -48.68618 | 28802 ft | 444 kts | 314° |
| 2026-05-04 14:41 | -14.90261 | -48.70812 | 29070 ft | 447 kts | 314° |
| 2026-05-04 14:41 | -14.87990 | -48.73017 | 29361 ft | 448 kts | 314° |
| 2026-05-04 14:41 | -14.83442 | -48.77429 | 29876 ft | 452 kts | 314° |
| 2026-05-04 14:42 | -14.78849 | -48.81883 | 30379 ft | 456 kts | 314° |
| 2026-05-04 14:42 | -14.76533 | -48.84128 | 30586 ft | 458 kts | 314° |
| 2026-05-04 14:42 | -14.74207 | -48.86382 | 30823 ft | 459 kts | 314° |
| 2026-05-04 14:43 | -14.71872 | -48.88644 | 31046 ft | 460 kts | 314° |
| 2026-05-04 14:43 | -14.69529 | -48.90913 | 31257 ft | 462 kts | 314° |
| 2026-05-04 14:43 | -14.67183 | -48.93185 | 31488 ft | 463 kts | 314° |
| 2026-05-04 14:43 | -14.64841 | -48.95452 | 31688 ft | 465 kts | 313° |
| 2026-05-04 14:44 | -14.62466 | -48.97750 | 31883 ft | 466 kts | 313° |
| 2026-05-04 14:44 | -14.60089 | -49.00048 | 32093 ft | 468 kts | 313° |
| 2026-05-04 14:44 | -14.57713 | -49.02347 | 32346 ft | 468 kts | 313° |
| 2026-05-04 14:44 | -14.55342 | -49.04644 | 32627 ft | 467 kts | 313° |
| 2026-05-04 14:45 | -14.52975 | -49.06934 | 32917 ft | 466 kts | 313° |
| 2026-05-04 14:45 | -14.50605 | -49.09227 | 33198 ft | 466 kts | 313° |
| 2026-05-04 14:45 | -14.48241 | -49.11513 | 33491 ft | 465 kts | 312° |
| 2026-05-04 14:45 | -14.45885 | -49.13789 | 33764 ft | 464 kts | 312° |
| 2026-05-04 14:46 | -14.43532 | -49.16063 | 34012 ft | 464 kts | 312° |
| 2026-05-04 14:46 | -14.41166 | -49.18344 | 34043 ft | 467 kts | 312° |
| 2026-05-04 14:46 | -14.36372 | -49.22963 | 34040 ft | 476 kts | 312° |
| 2026-05-04 14:47 | -14.31497 | -49.27659 | 34035 ft | 484 kts | 313° |
| 2026-05-04 14:47 | -14.26545 | -49.32429 | 34031 ft | 489 kts | 313° |
| 2026-05-04 14:48 | -14.21583 | -49.37207 | 34032 ft | 493 kts | 313° |
| 2026-05-04 14:48 | -14.16570 | -49.42034 | 34033 ft | 494 kts | 313° |
| 2026-05-04 14:49 | -14.11525 | -49.46887 | 34023 ft | 496 kts | 313° |
| 2026-05-04 14:49 | -14.06471 | -49.51748 | 34024 ft | 497 kts | 313° |
| 2026-05-04 14:50 | -14.01327 | -49.56521 | 34029 ft | 500 kts | 315° |
| 2026-05-04 14:50 | -13.96069 | -49.61205 | 34021 ft | 500 kts | 315° |
| 2026-05-04 14:51 | -13.90840 | -49.65882 | 34019 ft | 500 kts | 315° |
| 2026-05-04 14:51 | -13.85578 | -49.70586 | 34020 ft | 501 kts | 315° |
| 2026-05-04 14:52 | -13.80286 | -49.75315 | 34015 ft | 500 kts | 315° |
| 2026-05-04 14:52 | -13.75059 | -49.79983 | 34014 ft | 501 kts | 315° |
| 2026-05-04 14:53 | -13.69800 | -49.84676 | 34010 ft | 501 kts | 315° |
| 2026-05-04 14:53 | -13.64537 | -49.89370 | 34010 ft | 501 kts | 316° |
| 2026-05-04 14:54 | -13.59359 | -49.93987 | 34016 ft | 503 kts | 316° |
| 2026-05-04 14:54 | -13.54119 | -49.98655 | 34011 ft | 502 kts | 316° |
| 2026-05-04 14:55 | -13.48849 | -50.03346 | 34008 ft | 500 kts | 316° |
| 2026-05-04 14:55 | -13.43604 | -50.08013 | 34009 ft | 498 kts | 316° |
| 2026-05-04 14:56 | -13.38369 | -50.12668 | 34005 ft | 492 kts | 316° |
| 2026-05-04 14:56 | -13.35829 | -50.14925 | 34008 ft | 475 kts | 316° |
| 2026-05-04 14:56 | -13.33364 | -50.17116 | 34018 ft | 467 kts | 316° |
| 2026-05-04 14:57 | -13.28481 | -50.21454 | 34011 ft | 467 kts | 316° |
| 2026-05-04 14:57 | -13.23573 | -50.25811 | 34008 ft | 467 kts | 316° |
| 2026-05-04 14:58 | -13.18651 | -50.30177 | 34004 ft | 467 kts | 316° |
| 2026-05-04 14:58 | -13.13725 | -50.34539 | 34003 ft | 467 kts | 316° |
| 2026-05-04 14:59 | -13.08797 | -50.38902 | 34004 ft | 468 kts | 316° |
| 2026-05-04 15:00 | -13.01407 | -50.45438 | 34000 ft | 468 kts | 316° |
| 2026-05-04 15:00 | -12.96477 | -50.49796 | 34003 ft | 468 kts | 316° |
| 2026-05-04 15:01 | -12.89071 | -50.56339 | 34001 ft | 468 kts | 316° |
| 2026-05-04 15:01 | -12.84164 | -50.60670 | 34004 ft | 468 kts | 316° |
| 2026-05-04 15:02 | -12.79230 | -50.65023 | 34005 ft | 469 kts | 316° |
| 2026-05-04 15:02 | -12.74276 | -50.69391 | 34006 ft | 469 kts | 316° |
| 2026-05-04 15:03 | -12.69323 | -50.73757 | 34006 ft | 469 kts | 317° |
| 2026-05-04 15:03 | -12.64367 | -50.78122 | 34003 ft | 470 kts | 317° |
| 2026-05-04 15:04 | -12.59439 | -50.82461 | 33998 ft | 470 kts | 317° |
| 2026-05-04 15:04 | -12.54484 | -50.86821 | 34003 ft | 470 kts | 317° |
| 2026-05-04 15:05 | -12.49527 | -50.91181 | 34011 ft | 470 kts | 317° |
| 2026-05-04 15:05 | -12.44569 | -50.95539 | 34005 ft | 470 kts | 317° |